createdAt,value
2022-10-19T00:00:30.670Z,6.1
2022-10-19T00:06:53.478Z,4.4
2022-10-19T00:13:13.615Z,4.4
2022-10-19T00:19:36.533Z,5.4
2022-10-19T00:25:56.463Z,5.4
2022-10-19T00:32:19.523Z,6
2022-10-19T00:38:39.595Z,6
2022-10-19T00:45:02.627Z,8
2022-10-19T00:51:22.536Z,8
2022-10-19T00:57:45.689Z,3.3
2022-10-19T01:04:05.580Z,3.3
2022-10-19T01:10:28.611Z,4.2
2022-10-19T01:16:48.651Z,4.2
2022-10-19T01:23:11.520Z,5.4
2022-10-19T01:29:31.652Z,5.4
2022-10-19T01:35:54.577Z,5.8
2022-10-19T01:42:14.715Z,5.8
2022-10-19T01:48:37.540Z,5
2022-10-19T01:54:57.549Z,5
2022-10-19T02:01:20.560Z,6.4
2022-10-19T02:07:40.566Z,6.4
2022-10-19T02:14:03.587Z,3.6
2022-10-19T02:20:23.539Z,3.6
2022-10-19T02:26:46.625Z,5
2022-10-19T02:33:06.532Z,5
2022-10-19T02:39:29.681Z,4.4
2022-10-19T02:45:49.535Z,4.4
2022-10-19T02:52:12.644Z,7.8
2022-10-19T02:58:32.525Z,7.8
2022-10-19T03:04:55.531Z,6.2
2022-10-19T03:11:15.521Z,6.2
2022-10-19T03:17:38.508Z,5.4
2022-10-19T03:41:37.517Z,8.1
2022-10-19T03:47:57.474Z,8.1
2022-10-19T03:54:21.487Z,7.4
2022-10-19T04:00:40.526Z,7.4
2022-10-19T04:07:03.561Z,8
2022-10-19T04:13:23.538Z,8
2022-10-19T04:19:46.531Z,8.8
2022-10-19T04:26:06.639Z,8.8
2022-10-19T04:32:29.587Z,6.6
2022-10-19T04:38:49.550Z,6.6
2022-10-19T04:45:12.598Z,7.5
2022-10-19T04:51:32.507Z,7.5
2022-10-19T04:57:55.664Z,9.1
2022-10-19T05:04:15.553Z,9.1
2022-10-19T05:10:38.531Z,6.5
2022-10-19T05:16:58.585Z,6.5
2022-10-19T05:23:21.565Z,8.2
2022-10-19T05:29:41.742Z,8.2
2022-10-19T05:36:04.626Z,7.1
2022-10-19T05:42:24.684Z,7.1
2022-10-19T05:48:47.534Z,9.1
2022-10-19T05:55:07.530Z,9.1
2022-10-19T06:01:30.619Z,4.9
2022-10-19T06:07:50.503Z,4.9
2022-10-19T06:14:13.575Z,6.1
2022-10-19T06:20:33.601Z,6.1
2022-10-19T06:26:56.824Z,6.1
2022-10-19T06:33:16.621Z,6.1
2022-10-19T06:39:39.622Z,8.2
2022-10-19T06:45:59.640Z,8.2
2022-10-19T06:52:22.644Z,6.4
2022-10-19T06:58:42.508Z,6.4
2022-10-19T07:05:06.160Z,5.6
2022-10-19T07:11:25.641Z,5.6
2022-10-19T07:17:48.687Z,5.6
2022-10-19T07:24:08.561Z,5.6
2022-10-19T07:30:31.643Z,5.3
2022-10-19T07:36:51.724Z,5.3
2022-10-19T07:43:14.662Z,5.4
2022-10-19T07:49:34.667Z,5.4
2022-10-19T07:55:57.678Z,5.5
2022-10-19T08:02:17.786Z,5.5
2022-10-19T08:08:40.768Z,5.8
2022-10-19T08:15:00.629Z,5.8
2022-10-19T08:21:24.078Z,2.6
2022-10-19T08:27:43.686Z,2.6
2022-10-19T08:52:02.995Z,5.1
2022-10-19T08:58:22.494Z,5.1
2022-10-19T09:04:45.766Z,5.2
2022-10-19T09:11:05.644Z,5.2
2022-10-19T09:17:28.663Z,2
2022-10-19T09:23:48.594Z,2
2022-10-19T09:30:11.659Z,3.3
2022-10-19T09:36:46.280Z,3.3
2022-10-19T09:42:54.558Z,4.9
2022-10-19T09:49:14.681Z,4.9
2022-10-19T09:55:37.983Z,4.4
2022-10-19T10:01:57.669Z,4.4
2022-10-19T10:08:20.633Z,3.9
2022-10-19T10:14:40.585Z,3.9
2022-10-19T10:21:04.752Z,3.1
2022-10-19T10:27:24.027Z,3.1
2022-10-19T10:33:46.661Z,2.3
2022-10-19T10:40:06.534Z,2.3
2022-10-19T10:46:29.536Z,1.6
2022-10-19T10:52:49.519Z,1.6
2022-10-19T10:59:12.553Z,1.3
2022-10-19T11:05:32.544Z,1.3
2022-10-19T11:11:55.509Z,1.2
2022-10-19T11:18:15.592Z,1.2
2022-10-19T11:24:39.795Z,1.2
2022-10-19T11:30:59.515Z,1.2
2022-10-19T11:37:22.534Z,1.5
2022-10-19T11:43:42.506Z,1.5
2022-10-19T11:50:05.604Z,1.6
2022-10-19T11:56:34.992Z,1.6
2022-10-19T12:02:48.584Z,1.5
2022-10-19T12:09:08.556Z,1.5
2022-10-19T12:15:31.514Z,0.9
2022-10-19T12:21:51.571Z,0.9
2022-10-19T12:28:14.545Z,1.4
2022-10-19T12:34:34.551Z,1.4
2022-10-19T12:40:57.559Z,1.3
2022-10-19T12:47:17.486Z,1.3
2022-10-19T12:53:40.539Z,2.3
2022-10-19T13:00:00.544Z,2.3
2022-10-19T13:06:23.518Z,1.4
2022-10-19T13:12:43.538Z,1.4
2022-10-19T13:19:06.577Z,1.9
2022-10-19T13:25:26.553Z,1.9
2022-10-19T13:31:49.507Z,1.5
2022-10-19T13:38:09.571Z,1.5
2022-10-19T13:44:32.488Z,1.2
2022-10-19T14:08:03.591Z,1.2
2022-10-19T14:14:23.529Z,1.2
2022-10-19T14:20:46.538Z,0.6
2022-10-19T14:27:06.583Z,0.6
2022-10-19T14:33:29.479Z,0.8
2022-10-19T14:39:49.544Z,0.8
2022-10-19T14:46:12.545Z,1.6
2022-10-19T14:52:32.572Z,1.6
2022-10-19T14:58:55.487Z,3.2
2022-10-19T15:05:15.540Z,3.2
2022-10-19T15:11:38.576Z,1
2022-10-19T15:17:58.525Z,1
2022-10-19T15:24:21.572Z,2.5
2022-10-19T15:30:41.491Z,2.5
2022-10-19T15:37:05.651Z,2
2022-10-19T15:43:24.650Z,2
2022-10-19T15:49:47.528Z,2.6
2022-10-19T15:56:07.535Z,2.6
2022-10-19T16:02:30.512Z,1.6
2022-10-19T16:08:50.628Z,1.6
2022-10-19T16:15:13.484Z,1.9
2022-10-19T16:21:33.567Z,1.9
2022-10-19T16:27:56.514Z,1.3
2022-10-19T16:34:16.848Z,1.3
2022-10-19T16:40:39.570Z,1.3
2022-10-19T16:46:59.642Z,1.3
2022-10-19T16:53:22.532Z,1.9
2022-10-19T16:59:42.592Z,1.9
2022-10-19T17:06:05.549Z,2
2022-10-19T17:12:25.475Z,2
2022-10-19T17:18:48.553Z,2.5
2022-10-19T17:25:08.495Z,2.5
2022-10-19T17:31:31.500Z,2.7
2022-10-19T17:37:51.563Z,2.7
2022-10-19T17:44:14.501Z,3.1
2022-10-19T17:50:34.552Z,3.1
2022-10-19T17:56:57.555Z,2.6
2022-10-19T18:03:17.537Z,2.6
2022-10-19T18:09:40.500Z,2.2
2022-10-19T18:16:00.522Z,2.2
2022-10-19T18:22:23.538Z,1.4
2022-10-19T18:28:43.467Z,1.4
2022-10-19T18:35:06.521Z,2.8
2022-10-19T18:41:26.485Z,2.8
2022-10-19T18:47:49.530Z,2.2
2022-10-19T18:54:09.889Z,2.2
2022-10-19T19:00:32.561Z,2
2022-10-19T19:06:52.613Z,2
2022-10-19T19:29:41.442Z,4
2022-10-19T19:36:01.467Z,4
2022-10-19T19:42:27.695Z,5.1
2022-10-19T19:48:44.551Z,5.1
2022-10-19T19:55:07.473Z,4
2022-10-19T20:01:27.859Z,4
2022-10-19T20:07:50.509Z,1.7
2022-10-19T20:14:10.548Z,1.7
2022-10-19T20:20:33.768Z,2.7
2022-10-19T20:26:53.539Z,2.7
2022-10-19T20:33:16.613Z,3
2022-10-19T20:39:36.818Z,3
2022-10-19T20:45:59.564Z,2.1
2022-10-19T20:52:19.597Z,2.1
2022-10-19T20:58:42.543Z,2.5
2022-10-19T21:05:02.615Z,2.5
2022-10-19T21:11:25.538Z,3.1
2022-10-19T21:17:45.571Z,3.1
2022-10-19T21:24:08.572Z,3.2
2022-10-19T21:30:28.560Z,3.2
2022-10-19T21:36:51.546Z,2.5
2022-10-19T21:43:11.486Z,2.5
2022-10-19T21:49:34.578Z,2.5
2022-10-19T21:55:54.584Z,2.5
2022-10-19T22:02:17.546Z,2.1
2022-10-19T22:25:14.493Z,8
2022-10-19T22:31:34.501Z,8
2022-10-19T22:37:57.491Z,8
2022-10-19T22:44:17.645Z,8
2022-10-19T22:50:40.605Z,2.4
2022-10-19T22:57:00.609Z,2.4
2022-10-19T23:03:23.603Z,3.3
2022-10-19T23:09:43.574Z,3.3
2022-10-19T23:16:06.652Z,4.2
2022-10-19T23:22:26.635Z,4.2
2022-10-19T23:28:49.627Z,4.9
2022-10-19T23:35:09.548Z,4.9
2022-10-19T23:41:32.670Z,6
2022-10-19T23:47:52.546Z,6
2022-10-19T23:54:15.477Z,2.8
